Time;durP1;ratioP1;P1;durP2;ratioP2;P2;SDS_P1;SDS_P2;PMS_P1;PMS_P2;Temp;Humidity;BMP_temperature;BMP_pressure;BME280_temperature;BME280_humidity;BME280_pressure;Samples;Min_cycle;Max_cycle;Signal;HPM_P1;HPM_P2
2023/06/21 00:00:49;;;;;;;8.75;6.25;;;19.00;93.40;;;;;;5035138;28;20039;-46
2023/06/21 00:03:15;;;;;;;7.95;6.93;;;19.00;93.40;;;;;;5034572;28;20030;-47
2023/06/21 00:05:42;;;;;;;6.68;5.60;;;19.00;93.40;;;;;;5034810;28;20047;-46
2023/06/21 00:08:11;;;;;;;6.93;6.22;;;19.00;93.40;;;;;;5034724;28;20053;-47
2023/06/21 00:10:39;;;;;;;8.43;6.18;;;18.90;93.50;;;;;;5034830;28;20535;-48
2023/06/21 00:13:05;;;;;;;6.90;6.18;;;18.90;93.40;;;;;;5034450;28;20055;-46
2023/06/21 00:15:31;;;;;;;7.18;6.35;;;18.90;93.40;;;;;;5033169;28;20128;-47
2023/06/21 00:18:00;;;;;;;9.38;7.10;;;18.90;93.40;;;;;;5034453;28;20121;-47
2023/06/21 00:20:29;;;;;;;8.65;7.85;;;18.90;93.40;;;;;;5034469;28;20033;-50
2023/06/21 00:22:56;;;;;;;9.18;7.63;;;18.90;93.30;;;;;;5033190;28;20491;-47
2023/06/21 00:25:28;;;;;;;11.00;8.32;;;18.90;93.40;;;;;;5034190;28;20033;-47
2023/06/21 00:27:57;;;;;;;9.25;8.02;;;18.80;93.40;;;;;;5034279;28;20025;-47
2023/06/21 00:30:23;;;;;;;8.20;7.47;;;18.80;93.30;;;;;;5033959;28;20029;-47
2023/06/21 00:32:50;;;;;;;10.98;9.73;;;18.80;93.40;;;;;;5032831;28;20375;-46
2023/06/21 00:35:17;;;;;;;10.95;9.93;;;18.70;93.40;;;;;;5033596;28;20053;-47
2023/06/21 00:37:45;;;;;;;9.52;8.70;;;18.70;93.40;;;;;;5033584;28;20026;-47
2023/06/21 00:40:12;;;;;;;10.60;9.60;;;18.60;93.30;;;;;;5033675;28;20044;-47
2023/06/21 00:42:40;;;;;;;8.85;7.82;;;18.60;93.40;;;;;;5034257;28;20217;-47
2023/06/21 00:45:15;;;;;;;10.35;9.30;;;18.60;93.30;;;;;;5032993;28;20029;-48
2023/06/21 00:47:45;;;;;;;9.60;8.65;;;18.60;93.40;;;;;;5033188;28;20037;-46
2023/06/21 00:50:12;;;;;;;10.18;9.20;;;18.50;93.40;;;;;;5032644;28;20100;-49
2023/06/21 00:52:43;;;;;;;15.30;9.93;;;18.40;93.30;;;;;;5033798;28;20107;-49
2023/06/21 00:55:12;;;;;;;11.02;9.93;;;18.40;93.40;;;;;;5033800;28;20702;-46
2023/06/21 00:57:40;;;;;;;13.27;12.07;;;18.40;93.50;;;;;;5033539;28;20493;-50
2023/06/21 01:00:18;;;;;;;12.18;11.05;;;18.40;93.60;;;;;;5032601;28;20034;-47
2023/06/21 01:02:46;;;;;;;12.60;11.05;;;18.40;93.70;;;;;;5033403;28;20193;-46
2023/06/21 01:05:17;;;;;;;12.00;10.90;;;18.40;93.70;;;;;;5033699;28;20026;-47
2023/06/21 01:08:27;;;;;;;13.90;12.45;;;18.40;93.70;;;;;;5032415;28;20037;-47
2023/06/21 01:11:28;;;;;;;15.38;13.15;;;18.40;93.80;;;;;;5033326;28;20029;-50
2023/06/21 01:14:16;;;;;;;13.90;12.57;;;18.40;93.80;;;;;;5033591;28;20523;-47
2023/06/21 01:16:47;;;;;;;14.35;12.90;;;18.40;93.80;;;;;;5033005;28;20049;-46
2023/06/21 01:19:38;;;;;;;16.33;14.93;;;18.40;93.90;;;;;;5032438;28;20045;-46
2023/06/21 01:22:24;;;;;;;18.23;16.52;;;18.40;94.00;;;;;;5035359;28;20045;-46
2023/06/21 01:25:06;;;;;;;16.80;15.07;;;18.40;94.00;;;;;;5033273;28;20108;-46
2023/06/21 01:28:11;;;;;;;15.35;13.95;;;18.30;94.20;;;;;;5033428;28;20037;-46
2023/06/21 01:30:39;;;;;;;18.52;16.73;;;18.40;94.30;;;;;;5018776;28;20041;-46
2023/06/21 01:33:07;;;;;;;16.63;14.38;;;18.40;94.40;;;;;;5031798;28;20081;-47
2023/06/21 01:35:35;;;;;;;16.20;14.80;;;18.40;94.40;;;;;;5032110;28;20789;-48
2023/06/21 01:38:05;;;;;;;17.90;16.23;;;18.40;94.40;;;;;;5031699;28;20052;-46
2023/06/21 01:40:46;;;;;;;19.42;17.73;;;18.40;94.30;;;;;;5032650;28;20136;-47
2023/06/21 01:43:14;;;;;;;19.65;17.85;;;18.40;94.40;;;;;;5032336;28;20040;-46
2023/06/21 01:45:44;;;;;;;19.33;17.45;;;18.40;94.50;;;;;;5031758;28;20049;-46
2023/06/21 01:48:11;;;;;;;19.35;17.73;;;18.40;94.50;;;;;;5032354;28;20034;-47
2023/06/21 01:50:44;;;;;;;19.52;17.85;;;18.40;94.60;;;;;;5015166;28;20421;-47
2023/06/21 01:53:14;;;;;;;18.73;17.17;;;18.40;94.60;;;;;;5031493;28;20096;-47
2023/06/21 01:55:48;;;;;;;18.90;17.17;;;18.40;94.60;;;;;;5032869;28;20025;-49
2023/06/21 01:58:16;;;;;;;20.15;18.17;;;18.40;94.60;;;;;;5032677;28;20028;-47
2023/06/21 02:00:44;;;;;;;19.52;17.67;;;18.40;94.60;;;;;;5032305;28;20048;-47
2023/06/21 02:03:13;;;;;;;19.15;17.50;;;18.40;94.60;;;;;;5031901;28;20164;-46
2023/06/21 02:05:43;;;;;;;20.00;18.40;;;18.40;94.60;;;;;;5032180;28;20037;-48
2023/06/21 02:08:16;;;;;;;27.98;19.42;;;18.40;94.60;;;;;;5031702;28;20029;-47
2023/06/21 02:10:48;;;;;;;20.75;18.85;;;18.40;94.60;;;;;;5032387;28;20053;-46
2023/06/21 02:13:26;;;;;;;21.23;19.33;;;18.30;94.60;;;;;;5032856;28;20033;-48
2023/06/21 02:15:54;;;;;;;22.27;20.48;;;18.30;94.60;;;;;;5035005;28;20045;-46
2023/06/21 02:18:24;;;;;;;21.83;19.25;;;18.40;94.70;;;;;;5035591;28;20029;-46
2023/06/21 02:20:52;;;;;;;20.90;19.15;;;18.40;94.70;;;;;;5035384;28;20029;-48
2023/06/21 02:23:22;;;;;;;23.20;21.13;;;18.40;94.70;;;;;;5035473;28;20037;-46
2023/06/21 02:25:47;;;;;;;23.40;21.35;;;18.40;94.70;;;;;;5035490;28;20037;-48
2023/06/21 02:28:13;;;;;;;22.00;20.08;;;18.40;94.70;;;;;;5035382;28;20094;-50
2023/06/21 02:30:43;;;;;;;24.77;22.52;;;18.40;94.60;;;;;;5036329;28;20036;-49
2023/06/21 02:33:13;;;;;;;22.40;20.40;;;18.40;94.60;;;;;;5036719;28;20076;-46
2023/06/21 02:35:40;;;;;;;23.67;21.58;;;18.30;94.60;;;;;;5036426;28;20191;-46
2023/06/21 02:38:08;;;;;;;24.77;22.58;;;18.30;94.60;;;;;;5036393;28;20040;-46
2023/06/21 02:40:35;;;;;;;25.95;23.65;;;18.30;94.60;;;;;;5035270;28;20903;-46
2023/06/21 02:43:00;;;;;;;26.10;23.50;;;18.30;94.60;;;;;;5036237;28;20060;-46
2023/06/21 02:45:29;;;;;;;26.63;24.15;;;18.30;94.60;;;;;;5036220;28;20033;-47
2023/06/21 02:47:56;;;;;;;26.30;23.92;;;18.30;94.60;;;;;;5036296;28;20112;-46
2023/06/21 02:50:27;;;;;;;26.05;23.52;;;18.30;94.70;;;;;;5035090;28;20029;-46
2023/06/21 02:52:54;;;;;;;29.42;26.67;;;18.30;94.70;;;;;;5036005;28;20490;-47
2023/06/21 02:55:21;;;;;;;26.85;24.50;;;18.30;94.70;;;;;;5036009;28;20025;-48
2023/06/21 02:57:56;;;;;;;27.80;25.20;;;18.30;94.80;;;;;;5036105;28;20067;-46
2023/06/21 03:00:23;;;;;;;28.88;26.08;;;18.30;94.90;;;;;;5035940;28;20028;-46
2023/06/21 03:02:59;;;;;;;28.30;25.70;;;18.30;94.80;;;;;;5035868;28;20360;-47
2023/06/21 03:05:29;;;;;;;31.88;28.83;;;18.30;94.90;;;;;;5034945;28;20053;-46
2023/06/21 03:07:57;;;;;;;30.63;27.83;;;18.30;94.80;;;;;;5034820;28;20083;-46
2023/06/21 03:10:24;;;;;;;32.55;29.25;;;18.30;94.90;;;;;;5034944;28;20057;-46
2023/06/21 03:12:50;;;;;;;38.78;31.02;;;18.30;94.80;;;;;;5035460;28;20037;-46
2023/06/21 03:15:19;;;;;;;35.72;32.35;;;18.30;94.90;;;;;;5035368;28;20042;-46
2023/06/21 03:17:45;;;;;;;35.95;32.33;;;18.30;95.00;;;;;;5035488;28;20026;-46
2023/06/21 03:20:17;;;;;;;33.60;30.42;;;18.30;95.00;;;;;;5035497;28;20125;-46
2023/06/21 03:22:45;;;;;;;35.97;32.22;;;18.30;95.00;;;;;;5035387;28;20486;-48
2023/06/21 03:25:13;;;;;;;34.08;30.45;;;18.40;95.00;;;;;;5035553;28;20095;-46
2023/06/21 03:27:39;;;;;;;34.95;31.38;;;18.40;95.00;;;;;;5034451;28;20048;-46
2023/06/21 03:30:26;;;;;;;35.45;31.70;;;18.40;95.00;;;;;;5034338;28;20041;-46
2023/06/21 03:32:53;;;;;;;37.85;33.92;;;18.40;95.00;;;;;;5034111;28;20490;-49
2023/06/21 03:35:20;;;;;;;36.10;32.60;;;18.40;95.00;;;;;;5034393;28;20029;-47
2023/06/21 03:37:47;;;;;;;39.28;35.45;;;18.40;95.10;;;;;;5035236;28;20072;-48
2023/06/21 03:40:13;;;;;;;39.35;35.40;;;18.40;95.10;;;;;;5035288;28;20060;-46
2023/06/21 03:42:44;;;;;;;40.30;36.30;;;18.40;95.10;;;;;;5035014;28;20044;-46
2023/06/21 03:45:09;;;;;;;;;;;18.40;95.10;;;;;;5034526;28;20033;-48
2023/06/21 03:47:39;;;;;;;39.75;35.58;;;18.40;95.10;;;;;;5035026;28;20399;-47
2023/06/21 03:50:07;;;;;;;38.72;34.83;;;18.40;95.10;;;;;;5018025;28;20034;-46
2023/06/21 03:52:36;;;;;;;40.15;35.90;;;18.40;95.10;;;;;;5034026;28;20058;-46
2023/06/21 03:55:06;;;;;;;39.92;36.08;;;18.40;95.10;;;;;;5035276;28;20422;-46
2023/06/21 03:57:33;;;;;;;;;;;18.50;95.10;;;;;;5034575;28;20033;-48
2023/06/21 04:00:00;;;;;;;40.95;36.63;;;18.50;95.10;;;;;;5034808;28;19905;-46
2023/06/21 04:02:28;;;;;;;42.65;38.10;;;18.50;95.10;;;;;;5034694;28;20026;-48
2023/06/21 04:04:56;;;;;;;40.90;36.65;;;18.60;95.20;;;;;;5033555;28;20017;-46
2023/06/21 04:07:23;;;;;;;44.38;39.85;;;18.60;95.20;;;;;;5034671;28;20467;-47
2023/06/21 04:09:58;;;;;;;39.08;35.05;;;18.80;95.20;;;;;;5034202;28;20030;-46
2023/06/21 04:12:28;;;;;;;41.22;37.13;;;18.80;95.30;;;;;;5034150;28;20029;-46
2023/06/21 04:14:57;;;;;;;39.92;35.88;;;18.90;95.30;;;;;;5034391;28;20742;-49
2023/06/21 04:17:23;;;;;;;40.45;36.25;;;19.00;95.20;;;;;;5033864;28;20049;-48
2023/06/21 04:19:48;;;;;;;45.80;40.85;;;19.00;95.20;;;;;;5034037;28;20411;-46
2023/06/21 04:22:16;;;;;;;44.95;40.38;;;19.10;95.20;;;;;;5033528;28;20179;-46
2023/06/21 04:24:44;;;;;;;46.25;41.50;;;19.10;95.10;;;;;;5033741;28;20064;-47
2023/06/21 04:27:12;;;;;;;46.70;41.83;;;19.20;95.10;;;;;;5034155;28;20033;-46
2023/06/21 04:29:40;;;;;;;49.13;44.03;;;19.20;95.00;;;;;;5034129;28;20192;-49
2023/06/21 04:32:09;;;;;;;49.13;44.13;;;19.20;94.90;;;;;;5033944;28;20455;-46
2023/06/21 04:34:36;;;;;;;45.95;41.30;;;19.20;94.90;;;;;;5034008;28;20036;-46
2023/06/21 04:37:13;;;;;;;48.00;43.22;;;19.20;94.80;;;;;;5033252;28;20029;-46
2023/06/21 04:39:40;;;;;;;45.83;41.22;;;19.10;94.70;;;;;;5033053;28;20025;-46
2023/06/21 04:42:09;;;;;;;46.58;41.70;;;19.10;94.80;;;;;;5033041;28;20423;-47
2023/06/21 04:44:35;;;;;;;46.10;40.38;;;19.10;94.80;;;;;;5034000;28;20025;-52
2023/06/21 04:47:03;;;;;;;48.75;43.92;;;19.10;94.80;;;;;;5034301;28;20029;-47
2023/06/21 04:49:30;;;;;;;47.33;42.25;;;19.00;94.80;;;;;;5032912;28;20033;-46
2023/06/21 04:52:01;;;;;;;47.45;42.55;;;19.00;94.80;;;;;;5032771;28;20037;-45
2023/06/21 04:54:28;;;;;;;49.92;44.88;;;19.10;94.80;;;;;;5033728;28;20351;-46
2023/06/21 04:56:54;;;;;;;47.10;42.60;;;19.10;94.80;;;;;;5034014;28;20033;-47
2023/06/21 04:59:21;;;;;;;50.38;45.30;;;19.10;94.80;;;;;;5033027;28;20402;-46
2023/06/21 05:01:49;;;;;;;49.88;44.70;;;19.10;94.80;;;;;;5033460;28;20033;-47
2023/06/21 05:04:16;;;;;;;48.47;43.75;;;19.10;94.90;;;;;;5032677;28;20033;-45
2023/06/21 05:06:41;;;;;;;55.58;49.30;;;19.10;95.00;;;;;;5032831;28;20439;-45
2023/06/21 05:09:10;;;;;;;49.65;44.47;;;19.20;94.90;;;;;;5033614;28;20075;-46
2023/06/21 05:11:37;;;;;;;50.90;45.97;;;19.20;94.80;;;;;;5033628;28;20387;-45
2023/06/21 05:14:08;;;;;;;47.50;42.72;;;19.10;94.70;;;;;;5032328;28;20029;-46
2023/06/21 05:16:41;;;;;;;49.35;44.45;;;19.10;94.70;;;;;;5033170;28;20041;-45
2023/06/21 05:19:09;;;;;;;49.22;44.38;;;19.20;94.70;;;;;;5033656;28;20083;-45
2023/06/21 05:21:35;;;;;;;52.50;47.05;;;19.20;94.70;;;;;;5033381;28;20328;-45
2023/06/21 05:24:02;;;;;;;53.58;48.47;;;19.40;94.80;;;;;;5033139;28;20338;-45
2023/06/21 05:26:31;;;;;;;48.05;43.30;;;19.40;94.60;;;;;;5032355;28;20034;-49
2023/06/21 05:28:57;;;;;;;49.05;44.00;;;19.40;94.50;;;;;;5033214;28;20029;-45
2023/06/21 05:31:26;;;;;;;48.13;43.22;;;19.40;94.40;;;;;;5033154;28;20040;-45
2023/06/21 05:33:53;;;;;;;50.50;45.60;;;19.40;94.30;;;;;;5033235;28;20362;-45
2023/06/21 05:36:20;;;;;;;50.25;45.08;;;19.40;94.10;;;;;;5032441;28;20049;-45
2023/06/21 05:38:48;;;;;;;45.92;41.50;;;19.40;94.20;;;;;;5032245;28;20424;-46
2023/06/21 05:41:16;;;;;;;47.42;42.83;;;19.40;94.10;;;;;;5032046;28;20459;-49
2023/06/21 05:43:43;;;;;;;50.55;45.80;;;19.40;94.00;;;;;;5032881;28;20037;-47
2023/06/21 05:46:11;;;;;;;43.35;39.03;;;19.50;93.90;;;;;;5032907;28;20030;-46
2023/06/21 05:48:39;;;;;;;46.27;41.53;;;19.50;93.80;;;;;;5033395;28;20061;-44
2023/06/21 05:51:07;;;;;;;43.67;39.03;;;19.60;93.50;;;;;;5032072;28;20698;-45
2023/06/21 05:53:35;;;;;;;37.63;34.15;;;19.70;93.30;;;;;;5033043;28;20034;-45
2023/06/21 05:56:03;;;;;;;40.33;36.40;;;19.90;93.10;;;;;;5033199;28;20109;-44
2023/06/21 05:58:30;;;;;;;40.47;36.75;;;19.90;92.50;;;;;;5032936;28;20344;-43
2023/06/21 06:00:59;;;;;;;40.63;36.75;;;19.90;92.30;;;;;;5032850;28;20051;-45
2023/06/21 06:03:25;;;;;;;39.20;35.63;;;20.00;92.30;;;;;;5032797;28;20029;-47
2023/06/21 06:05:53;;;;;;;37.13;33.40;;;20.10;92.20;;;;;;5032711;28;20034;-45
2023/06/21 06:08:21;;;;;;;42.65;38.25;;;20.10;92.10;;;;;;5033166;28;20030;-45
2023/06/21 06:10:52;;;;;;;35.65;32.22;;;20.30;92.00;;;;;;5033178;28;20103;-45
2023/06/21 06:13:21;;;;;;;36.40;33.08;;;20.40;91.70;;;;;;5032764;28;20038;-45
2023/06/21 06:15:49;;;;;;;34.88;31.42;;;20.60;91.10;;;;;;5031953;28;20049;-45
2023/06/21 06:18:16;;;;;;;30.60;27.80;;;20.90;90.10;;;;;;5032313;28;20074;-45
2023/06/21 06:20:43;;;;;;;34.60;31.25;;;21.10;90.30;;;;;;5031187;28;20037;-46
2023/06/21 06:23:15;;;;;;;29.40;26.63;;;21.40;89.40;;;;;;5032349;28;20021;-45
2023/06/21 06:25:42;;;;;;;31.58;28.42;;;21.40;88.50;;;;;;5032461;28;20455;-45
2023/06/21 06:28:08;;;;;;;32.47;29.20;;;21.40;88.00;;;;;;5032182;28;20387;-45
2023/06/21 06:30:35;;;;;;;31.52;28.83;;;21.40;87.10;;;;;;5031685;28;20021;-46
2023/06/21 06:33:02;;;;;;;30.50;27.60;;;21.20;87.20;;;;;;5031848;28;20017;-45
2023/06/21 06:35:32;;;;;;;26.98;24.60;;;21.20;87.50;;;;;;5031213;28;20025;-46
2023/06/21 06:38:00;;;;;;;28.70;26.02;;;21.30;87.80;;;;;;5031880;28;20420;-46
2023/06/21 06:40:28;;;;;;;34.28;31.10;;;21.40;87.90;;;;;;5030963;28;20462;-46
2023/06/21 06:42:57;;;;;;;30.92;28.15;;;21.20;87.90;;;;;;5032046;28;20029;-46
2023/06/21 06:45:24;;;;;;;30.83;27.80;;;21.20;87.20;;;;;;5031887;28;20048;-46
2023/06/21 06:47:51;;;;;;;29.63;26.77;;;21.20;87.40;;;;;;5031776;28;20059;-46
2023/06/21 06:50:19;;;;;;;30.90;28.00;;;21.20;87.70;;;;;;5031634;28;20028;-47
2023/06/21 06:52:48;;;;;;;32.40;29.48;;;21.30;87.50;;;;;;5031947;28;20502;-46
2023/06/21 06:55:15;;;;;;;29.95;27.15;;;21.40;87.40;;;;;;5032215;28;20030;-46
2023/06/21 06:57:42;;;;;;;30.48;27.80;;;21.50;87.20;;;;;;5032063;28;20423;-46
2023/06/21 07:00:12;;;;;;;27.40;24.80;;;21.60;86.30;;;;;;5031173;28;20041;-48
2023/06/21 07:02:38;;;;;;;27.13;24.35;;;21.60;85.30;;;;;;5035651;28;20029;-48
2023/06/21 07:05:08;;;;;;;28.95;26.10;;;21.60;85.10;;;;;;5035863;28;20021;-47
2023/06/21 07:07:39;;;;;;;29.10;26.48;;;21.60;84.30;;;;;;5035821;28;20396;-47
2023/06/21 07:10:05;;;;;;;28.52;25.67;;;21.70;85.20;;;;;;5035791;28;20025;-47
2023/06/21 07:12:35;;;;;;;28.83;26.05;;;21.90;85.40;;;;;;5034901;28;20465;-47
2023/06/21 07:15:02;;;;;;;27.65;25.05;;;21.90;84.90;;;;;;5035455;28;20031;-47
2023/06/21 07:17:32;;;;;;;26.55;23.73;;;21.80;84.40;;;;;;5035462;28;20041;-48
2023/06/21 07:20:00;;;;;;;29.92;26.92;;;21.80;84.80;;;;;;5035991;28;20022;-48
2023/06/21 07:22:27;;;;;;;27.20;24.38;;;21.90;83.70;;;;;;5034456;28;20025;-47
2023/06/21 07:24:57;;;;;;;25.58;23.15;;;21.90;82.80;;;;;;5035728;28;20017;-48
2023/06/21 07:27:29;;;;;;;25.70;23.33;;;21.70;82.80;;;;;;5035287;28;20049;-49
2023/06/21 07:29:56;;;;;;;24.13;21.92;;;21.80;82.60;;;;;;5034181;28;20061;-49
2023/06/21 07:32:25;;;;;;;25.73;23.25;;;21.80;82.60;;;;;;5035349;28;20067;-47
2023/06/21 07:34:53;;;;;;;23.30;20.88;;;21.70;81.70;;;;;;5035406;28;20029;-47
2023/06/21 07:37:20;;;;;;;22.77;20.70;;;21.60;81.60;;;;;;5035431;28;20040;-47
2023/06/21 07:39:47;;;;;;;21.17;19.15;;;21.50;82.30;;;;;;5035124;28;20025;-47
2023/06/21 07:42:14;;;;;;;22.58;20.48;;;21.40;82.50;;;;;;5034064;28;20033;-47
2023/06/21 07:44:41;;;;;;;23.23;21.13;;;21.30;82.10;;;;;;5035087;28;20033;-48
2023/06/21 07:47:09;;;;;;;22.65;20.42;;;21.30;82.70;;;;;;5035095;28;20053;-47
2023/06/21 07:49:34;;;;;;;23.73;21.40;;;21.00;82.90;;;;;;5034616;28;20029;-47
2023/06/21 07:52:02;;;;;;;23.42;21.20;;;20.90;83.30;;;;;;5034764;28;20367;-47
2023/06/21 07:54:38;;;;;;;18.08;16.35;;;21.40;82.90;;;;;;5034499;28;20017;-48
2023/06/21 07:57:06;;;;;;;19.63;17.08;;;22.10;80.40;;;;;;5034385;28;20030;-47
2023/06/21 07:59:32;;;;;;;18.67;16.70;;;23.00;77.90;;;;;;5033533;28;20143;-48
2023/06/21 08:01:59;;;;;;;15.57;14.07;;;23.60;74.20;;;;;;5034728;28;20486;-47
2023/06/21 08:04:24;;;;;;;16.55;14.98;;;23.50;73.60;;;;;;5034679;28;20363;-47
2023/06/21 08:06:53;;;;;;;15.48;12.98;;;23.90;72.00;;;;;;5034490;28;20049;-48
2023/06/21 08:09:19;;;;;;;13.15;12.02;;;24.40;72.80;;;;;;5033485;28;20120;-48
2023/06/21 08:11:48;;;;;;;13.88;11.93;;;24.70;71.10;;;;;;5034667;28;20033;-48
2023/06/21 08:14:18;;;;;;;12.68;11.45;;;24.90;68.10;;;;;;5034056;28;20067;-48
2023/06/21 08:16:46;;;;;;;10.38;9.38;;;25.00;67.40;;;;;;5034183;28;20073;-48
2023/06/21 08:19:14;;;;;;;13.68;12.43;;;25.20;68.00;;;;;;5034642;28;20105;-48
2023/06/21 08:21:41;;;;;;;14.10;12.80;;;24.80;68.10;;;;;;5034337;28;20022;-49
2023/06/21 08:24:09;;;;;;;14.35;12.85;;;24.80;68.80;;;;;;5034279;28;20026;-48
2023/06/21 08:26:36;;;;;;;15.20;13.68;;;24.60;69.00;;;;;;5033389;28;20116;-47
2023/06/21 08:29:08;;;;;;;15.35;13.98;;;24.40;69.20;;;;;;5034106;28;20040;-47
2023/06/21 08:31:34;;;;;;;13.82;12.43;;;23.90;71.20;;;;;;5034147;28;20025;-50
2023/06/21 08:34:03;;;;;;;15.73;14.13;;;23.70;71.70;;;;;;5034304;28;20104;-48
2023/06/21 08:36:29;;;;;;;13.73;12.32;;;23.40;72.40;;;;;;5033240;28;20060;-48
2023/06/21 08:38:58;;;;;;;13.32;11.88;;;23.20;73.10;;;;;;5033824;28;20514;-51
2023/06/21 08:41:26;;;;;;;13.00;11.63;;;23.20;73.30;;;;;;5033197;28;20026;-47
2023/06/21 08:43:53;;;;;;;13.38;11.98;;;23.40;72.30;;;;;;5032893;28;20057;-47
2023/06/21 08:46:25;;;;;;;14.75;11.65;;;23.50;72.00;;;;;;5034119;28;20033;-48
2023/06/21 08:48:56;;;;;;;14.90;12.73;;;23.70;72.20;;;;;;5033664;28;20029;-48
2023/06/21 08:51:26;;;;;;;13.43;11.52;;;23.90;71.70;;;;;;5016945;28;20378;-47
2023/06/21 08:54:08;;;;;;;15.43;13.70;;;23.70;71.80;;;;;;5032968;28;20033;-50
2023/06/21 08:56:51;;;;;;;15.85;14.20;;;23.50;72.20;;;;;;5033905;28;20025;-50
2023/06/21 08:59:27;;;;;;;14.23;12.77;;;23.30;72.50;;;;;;5032607;28;20064;-48
2023/06/21 09:02:27;;;;;;;13.00;11.73;;;23.70;72.20;;;;;;5032961;28;20036;-49
2023/06/21 09:04:53;;;;;;;;;;;23.60;69.90;;;;;;5034272;28;20028;-49
2023/06/21 09:07:22;;;;;;;12.57;11.27;;;23.80;70.40;;;;;;5033645;28;19912;-48
2023/06/21 09:09:54;;;;;;;13.57;12.15;;;23.40;70.40;;;;;;5032810;28;20114;-49
2023/06/21 09:12:22;;;;;;;12.57;11.35;;;23.70;71.30;;;;;;5032787;28;20060;-49
2023/06/21 09:14:51;;;;;;;12.18;10.05;;;24.30;70.40;;;;;;5032690;28;20033;-50
2023/06/21 09:17:20;;;;;;;12.90;9.27;;;24.50;67.70;;;;;;5033298;28;20148;-49
2023/06/21 09:19:52;;;;;;;9.98;8.98;;;24.30;69.10;;;;;;5032232;28;20122;-48
2023/06/21 09:22:18;;;;;;;9.20;8.30;;;24.10;68.70;;;;;;5015608;28;20041;-50
2023/06/21 09:24:44;;;;;;;13.55;11.07;;;24.30;69.90;;;;;;5032237;28;20489;-51
2023/06/21 09:27:10;;;;;;;10.05;9.07;;;24.40;69.10;;;;;;5032345;28;20034;-49
2023/06/21 09:29:38;;;;;;;10.80;9.77;;;24.80;67.60;;;;;;5033282;28;20120;-50
2023/06/21 09:32:05;;;;;;;11.02;9.75;;;25.30;65.40;;;;;;5015721;28;20041;-53
2023/06/21 09:34:34;;;;;;;8.73;7.80;;;25.70;65.00;;;;;;5033156;28;20029;-49
2023/06/21 09:37:02;;;;;;;9.60;7.82;;;26.30;64.30;;;;;;5032323;28;20331;-52
2023/06/21 09:39:28;;;;;;;9.30;7.80;;;26.50;62.20;;;;;;5034962;28;20041;-52
2023/06/21 09:41:56;;;;;;;9.55;6.93;;;26.70;60.90;;;;;;5031905;28;20033;-49
2023/06/21 09:44:25;;;;;;;8.38;6.82;;;26.70;62.20;;;;;;5032960;28;20083;-55
2023/06/21 09:47:02;;;;;;;7.75;6.95;;;26.60;61.10;;;;;;5032050;28;20382;-50
2023/06/21 09:49:35;;;;;;;8.48;5.60;;;26.80;60.40;;;;;;5031856;28;20041;-52
2023/06/21 09:52:03;;;;;;;7.28;6.20;;;26.50;60.90;;;;;;5032718;28;20109;-53
2023/06/21 09:54:41;;;;;;;7.43;6.17;;;26.60;60.00;;;;;;5032658;28;20022;-52
2023/06/21 09:57:17;;;;;;;7.72;6.28;;;26.60;60.50;;;;;;5015309;28;20026;-50
2023/06/21 09:59:50;;;;;;;6.68;4.93;;;26.50;60.80;;;;;;5032476;28;20394;-50
2023/06/21 10:02:20;;;;;;;7.95;5.15;;;27.10;60.90;;;;;;5032693;28;20025;-51
2023/06/21 10:04:47;;;;;;;9.32;6.18;;;26.60;60.10;;;;;;5031594;28;20026;-50
2023/06/21 10:07:14;;;;;;;9.02;7.78;;;26.70;60.90;;;;;;5031665;28;20044;-53
2023/06/21 10:09:43;;;;;;;10.48;7.40;;;26.30;60.90;;;;;;5031225;28;20022;-51
2023/06/21 10:12:13;;;;;;;10.37;6.37;;;26.30;62.30;;;;;;5032200;28;20040;-50
2023/06/21 10:14:42;;;;;;;9.05;4.93;;;26.50;61.10;;;;;;5031066;28;20661;-54
2023/06/21 10:17:08;;;;;;;6.43;4.40;;;27.00;62.80;;;;;;5031990;28;20064;-50
2023/06/21 10:19:39;;;;;;;7.93;4.57;;;26.80;58.70;;;;;;5031034;28;20084;-52
2023/06/21 10:22:10;;;;;;;4.90;3.30;;;26.80;62.70;;;;;;5014361;28;20451;-50
2023/06/21 10:24:52;;;;;;;5.10;3.13;;;26.60;60.30;;;;;;5031151;28;20030;-53
2023/06/21 10:27:30;;;;;;;3.75;2.42;;;26.50;59.40;;;;;;5031244;28;20369;-51
2023/06/21 10:30:05;;;;;;;4.25;2.40;;;26.00;57.40;;;;;;5031801;28;20040;-52
2023/06/21 10:32:34;;;;;;;5.20;3.17;;;25.90;59.80;;;;;;5031777;28;20037;-54
2023/06/21 10:35:06;;;;;;;4.95;2.78;;;25.70;59.40;;;;;;5031273;28;20034;-50
2023/06/21 10:37:54;;;;;;;3.63;2.10;;;26.00;62.70;;;;;;5034817;28;20029;-50
2023/06/21 10:40:23;;;;;;;4.85;2.50;;;26.80;59.80;;;;;;5035390;28;20054;-51
2023/06/21 10:42:53;;;;;;;4.25;2.38;;;26.90;56.80;;;;;;5035841;28;20033;-51
2023/06/21 10:45:20;;;;;;;5.25;2.15;;;26.60;58.50;;;;;;5034615;28;20030;-50
2023/06/21 10:47:47;;;;;;;5.22;3.13;;;26.30;59.60;;;;;;5035602;28;20068;-50
2023/06/21 10:50:17;;;;;;;4.63;2.17;;;25.90;59.80;;;;;;5034209;28;20185;-54
2023/06/21 10:52:43;;;;;;;;;;;25.60;60.30;;;;;;5034933;28;20061;-52
2023/06/21 10:55:13;;;;;;;4.20;1.75;;;25.50;62.60;;;;;;5035182;28;20317;-54
2023/06/21 10:57:42;;;;;;;5.38;2.88;;;25.70;62.60;;;;;;5034410;28;20034;-52
2023/06/21 11:00:09;;;;;;;3.22;2.00;;;26.40;60.00;;;;;;5034219;28;20030;-51
2023/06/21 11:02:36;;;;;;;4.07;2.47;;;26.90;61.00;;;;;;5018453;28;20439;-52
2023/06/21 11:05:30;;;;;;;7.22;3.20;;;27.10;61.60;;;;;;5018401;28;20033;-53
2023/06/21 11:08:06;;;;;;;4.22;2.67;;;26.60;59.50;;;;;;5035960;28;20022;-52
2023/06/21 11:10:58;;;;;;;7.65;2.45;;;26.20;61.70;;;;;;5034612;28;20049;-57
2023/06/21 11:13:37;;;;;;;4.85;2.80;;;26.20;63.40;;;;;;5036102;28;20220;-55
2023/06/21 11:16:16;;;;;;;4.28;2.63;;;26.30;62.70;;;;;;5034671;28;20045;-52
2023/06/21 11:18:59;;;;;;;8.02;3.22;;;26.20;62.10;;;;;;5034735;28;20037;-56
2023/06/21 11:21:49;;;;;;;5.78;3.33;;;25.60;63.60;;;;;;5035656;28;20033;-56
2023/06/21 11:24:19;;;;;;;4.22;2.42;;;25.30;64.40;;;;;;5035814;28;20033;-55
2023/06/21 11:27:03;;;;;;;4.30;2.30;;;25.30;65.70;;;;;;5034627;28;20087;-54
2023/06/21 11:29:50;;;;;;;3.80;2.42;;;25.80;65.40;;;;;;5035175;28;20032;-54
2023/06/21 11:32:22;;;;;;;5.05;3.20;;;26.20;65.20;;;;;;5035172;28;20087;-54
2023/06/21 11:35:00;;;;;;;4.88;2.47;;;26.40;60.60;;;;;;5035236;28;20033;-54
2023/06/21 11:37:32;;;;;;;5.03;2.70;;;26.70;63.40;;;;;;5048126;28;20467;-55
2023/06/21 11:40:03;;;;;;;3.80;2.92;;;27.00;61.30;;;;;;5035122;28;20481;-51
2023/06/21 11:42:52;;;;;;;4.40;2.90;;;27.00;60.10;;;;;;5034286;28;20037;-54
2023/06/21 11:45:35;;;;;;;6.03;3.40;;;26.40;61.10;;;;;;5034934;28;20037;-53
2023/06/21 11:48:08;;;;;;;5.28;2.90;;;26.00;62.20;;;;;;5034065;28;20099;-52
2023/06/21 11:50:48;;;;;;;5.85;3.78;;;25.90;64.40;;;;;;5034877;28;20030;-51
2023/06/21 11:53:40;;;;;;;4.50;3.58;;;25.90;62.80;;;;;;5034281;28;20108;-50
2023/06/21 11:56:09;;;;;;;5.38;3.08;;;25.80;63.00;;;;;;5033867;28;20022;-53
2023/06/21 11:58:58;;;;;;;5.50;2.75;;;25.70;64.40;;;;;;5033790;28;20120;-52
2023/06/21 12:01:45;;;;;;;3.90;2.78;;;25.80;66.20;;;;;;5034804;28;20768;-52
2023/06/21 12:04:27;;;;;;;5.63;3.80;;;25.80;65.40;;;;;;5035001;28;20041;-50
2023/06/21 12:06:58;;;;;;;5.70;3.35;;;25.90;64.70;;;;;;5034218;28;20038;-51
2023/06/21 12:09:26;;;;;;;4.65;2.95;;;25.90;63.70;;;;;;5033617;28;20414;-52
2023/06/21 12:11:53;;;;;;;6.53;3.22;;;26.00;62.20;;;;;;5034440;28;20025;-54
2023/06/21 12:14:19;;;;;;;4.20;2.75;;;25.70;62.00;;;;;;5034728;28;20423;-50
2023/06/21 12:16:50;;;;;;;7.57;4.20;;;25.60;64.50;;;;;;5034385;28;20049;-53
2023/06/21 12:19:21;;;;;;;9.80;4.18;;;25.60;65.80;;;;;;5034503;28;20021;-51
2023/06/21 12:22:05;;;;;;;5.10;3.25;;;25.70;63.70;;;;;;5032934;28;20029;-51
2023/06/21 12:24:32;;;;;;;7.30;3.70;;;25.50;63.20;;;;;;5034251;28;20026;-49
2023/06/21 12:27:03;;;;;;;5.28;4.07;;;25.40;63.90;;;;;;5033646;28;20531;-50
2023/06/21 12:29:53;;;;;;;5.05;3.75;;;25.40;63.90;;;;;;5034166;28;20091;-55
2023/06/21 12:32:22;;;;;;;5.72;4.53;;;25.40;65.40;;;;;;5033274;28;20033;-50
2023/06/21 12:35:02;;;;;;;5.05;3.80;;;25.40;67.20;;;;;;5033428;28;20111;-53
2023/06/21 12:37:30;;;;;;;6.78;3.97;;;25.10;66.60;;;;;;5033179;28;20482;-50
2023/06/21 12:40:07;;;;;;;6.00;4.20;;;25.20;67.90;;;;;;5033052;28;20046;-50
2023/06/21 12:42:36;;;;;;;6.70;5.00;;;25.30;67.60;;;;;;5033863;28;20040;-51
2023/06/21 12:45:05;;;;;;;7.43;4.20;;;25.20;66.00;;;;;;5033907;28;20033;-53
2023/06/21 12:47:34;;;;;;;6.63;4.45;;;24.80;66.60;;;;;;5034168;28;20087;-52
2023/06/21 12:50:04;;;;;;;8.75;4.93;;;24.50;68.20;;;;;;5034049;28;20064;-50
2023/06/21 12:52:32;;;;;;;6.03;4.78;;;24.50;68.90;;;;;;5016802;28;20055;-52